Time;durP1;ratioP1;P1;durP2;ratioP2;P2;SDS_P1;SDS_P2;PMS_P1;PMS_P2;Temp;Humidity;BMP_temperature;BMP_pressure;BME280_temperature;BME280_humidity;BME280_pressure;Samples;Min_cycle;Max_cycle;Signal;HPM_P1;HPM_P2
2021/05/31 00:01:54;;;;;;;4.03;2.25;;;;;;;8.92;54.49;99925.28;6064424;23;20026;-81
2021/05/31 00:04:21;;;;;;;4.55;2.08;;;;;;;8.94;54.12;99923.28;6064343;23;20398;-80
2021/05/31 00:07:02;;;;;;;4.53;1.90;;;;;;;8.93;54.21;99929.66;6038174;23;20070;-81
2021/05/31 00:09:28;;;;;;;6.55;2.17;;;;;;;8.90;54.25;99916.44;6063238;23;20453;-80
2021/05/31 00:11:53;;;;;;;4.97;2.15;;;;;;;8.98;54.10;99925.72;6065650;23;20029;-81
2021/05/31 00:14:19;;;;;;;3.90;2.38;;;;;;;8.96;54.25;99914.19;6065041;23;20298;-79
2021/05/31 00:16:45;;;;;;;4.55;1.95;;;;;;;8.87;54.63;99916.72;6063819;23;20112;-80
2021/05/31 00:19:12;;;;;;;5.00;2.35;;;;;;;8.93;54.78;99921.56;6067027;23;20454;-81
2021/05/31 00:21:39;;;;;;;4.40;1.60;;;;;;;8.88;54.95;99923.81;6065576;23;20181;-80
2021/05/31 00:24:05;;;;;;;2.20;1.45;;;;;;;8.81;54.98;99911.00;6067048;23;20090;-81
2021/05/31 00:26:31;;;;;;;2.88;1.83;;;;;;;8.83;54.71;99920.66;6064440;23;20064;-80
2021/05/31 00:28:57;;;;;;;5.15;1.50;;;;;;;8.79;55.29;99918.38;6064764;23;20082;-81
2021/05/31 00:31:23;;;;;;;5.78;1.90;;;;;;;8.80;55.12;99928.16;6062972;23;20046;-82
2021/05/31 00:33:49;;;;;;;3.00;1.67;;;;;;;8.76;54.97;99918.63;6062874;23;20050;-79
2021/05/31 00:36:16;;;;;;;5.05;2.58;;;;;;;8.71;55.02;99910.09;6062612;23;20105;-79
2021/05/31 00:38:42;;;;;;;4.78;1.50;;;;;;;8.68;55.56;99916.59;6065811;23;20035;-83
2021/05/31 00:41:08;;;;;;;3.22;1.80;;;;;;;8.66;55.55;99916.72;6065624;23;20418;-82
2021/05/31 00:43:34;;;;;;;3.47;1.90;;;;;;;8.63;55.52;99913.47;6063360;23;20023;-79
2021/05/31 00:46:08;;;;;;;2.50;1.40;;;;;;;8.64;55.50;99910.63;6063523;23;20159;-83
2021/05/31 00:48:36;;;;;;;4.10;2.05;;;;;;;8.63;55.37;99905.38;6065489;23;20026;-81
2021/05/31 00:51:06;;;;;;;2.72;1.52;;;;;;;8.64;55.56;99904.38;6016235;23;20023;-82
2021/05/31 00:53:32;;;;;;;3.50;1.40;;;;;;;8.55;55.73;99910.56;6065412;23;20264;-79
2021/05/31 00:55:58;;;;;;;4.93;1.55;;;;;;;8.54;56.05;99911.56;6039813;23;20355;-79
2021/05/31 00:58:27;;;;;;;4.88;1.50;;;;;;;8.50;55.86;99915.50;6064851;23;20067;-80
2021/05/31 01:00:54;;;;;;;5.32;1.95;;;;;;;8.45;56.09;99918.59;6063032;23;20046;-82
2021/05/31 01:03:20;;;;;;;4.88;1.55;;;;;;;8.44;56.31;99912.31;6066210;23;20025;-79
2021/05/31 01:05:47;;;;;;;3.58;1.40;;;;;;;8.44;56.60;99909.63;6016852;23;20023;-80
2021/05/31 01:08:21;;;;;;;5.82;1.80;;;;;;;8.40;56.58;99908.19;6066447;23;20025;-80
2021/05/31 01:11:03;;;;;;;2.95;1.55;;;;;;;8.39;56.48;99911.88;6068115;23;20042;-81
2021/05/31 01:13:42;;;;;;;3.88;1.90;;;;;;;8.47;56.02;99918.44;6066278;23;20370;-81
2021/05/31 01:16:25;;;;;;;6.18;2.05;;;;;;;8.39;56.70;99916.41;6065555;23;20019;-80
2021/05/31 01:18:51;;;;;;;3.75;1.67;;;;;;;8.38;56.89;99931.72;6067973;23;20070;-82
2021/05/31 01:21:37;;;;;;;6.20;2.30;;;;;;;8.41;56.35;99928.78;6068415;23;20097;-82
2021/05/31 01:24:11;;;;;;;2.40;1.65;;;;;;;8.40;56.21;99924.34;6066769;23;20027;-81
2021/05/31 01:27:00;;;;;;;3.55;1.90;;;;;;;8.37;56.75;99926.41;6041233;23;20051;-82
2021/05/31 01:29:26;;;;;;;3.40;1.65;;;;;;;8.34;56.91;99924.88;6064607;23;20023;-79
2021/05/31 01:32:00;;;;;;;3.30;1.67;;;;;;;8.36;56.85;99928.25;5992382;23;20023;-81
2021/05/31 01:34:28;;;;;;;4.45;1.60;;;;;;;8.37;57.40;99932.72;6066670;23;20033;-80
2021/05/31 01:37:07;;;;;;;2.80;1.73;;;;;;;8.43;56.93;99931.31;6067547;23;20030;-80
2021/05/31 01:39:37;;;;;;;3.95;1.63;;;;;;;8.37;56.80;99939.88;6069099;23;20090;-81
2021/05/31 01:42:03;;;;;;;3.88;1.33;;;;;;;8.36;56.67;99944.44;6069533;23;20077;-83
2021/05/31 01:44:30;;;;;;;5.97;2.13;;;;;;;8.34;56.99;99949.09;6065773;23;20019;-80
2021/05/31 01:46:56;;;;;;;4.28;1.80;;;;;;;8.35;57.08;99941.88;6087969;23;20034;-81
2021/05/31 01:49:22;;;;;;;3.53;1.60;;;;;;;8.40;56.95;99943.22;6066550;23;20394;-80
2021/05/31 01:51:48;;;;;;;5.25;1.98;;;;;;;8.43;57.03;99940.25;6086489;23;20110;-84
2021/05/31 01:54:15;;;;;;;4.38;1.95;;;;;;;8.46;57.25;99941.84;6063606;23;20027;-81
2021/05/31 01:56:44;;;;;;;3.83;2.20;;;;;;;8.41;56.75;99947.63;6063053;23;20025;-81
2021/05/31 01:59:11;;;;;;;3.17;1.70;;;;;;;8.34;56.84;99950.94;6086633;23;20030;-82
2021/05/31 02:01:36;;;;;;;3.97;1.50;;;;;;;8.36;56.73;99955.19;6039117;23;20023;-80
2021/05/31 02:04:02;;;;;;;7.00;1.75;;;;;;;8.35;57.36;99958.03;6064772;23;20027;-81
2021/05/31 02:06:28;;;;;;;3.83;1.63;;;;;;;8.40;57.91;99953.13;6065740;23;20023;-80
2021/05/31 02:08:54;;;;;;;2.67;1.83;;;;;;;8.39;57.79;99954.97;6064370;23;20019;-80
2021/05/31 02:11:45;;;;;;;5.28;1.52;;;;;;;8.40;57.71;99956.69;6065302;23;20018;-82
2021/05/31 02:14:29;;;;;;;2.72;1.40;;;;;;;8.26;57.47;99965.03;6066203;23;20374;-80
2021/05/31 02:16:59;;;;;;;;;;;;;;;8.24;57.85;99961.63;6040222;23;20034;-80
2021/05/31 02:19:25;;;;;;;2.55;1.50;;;;;;;8.33;57.46;99960.84;6015914;23;19970;-79
2021/05/31 02:21:51;;;;;;;3.47;2.10;;;;;;;8.38;57.74;99963.19;6015856;23;20106;-78
2021/05/31 02:24:21;;;;;;;31.67;28.15;;;;;;;8.39;58.17;99960.38;6067240;23;20029;-82
2021/05/31 02:26:48;;;;;;;5.50;4.78;;;;;;;8.46;58.17;99966.09;6064877;23;20364;-80
2021/05/31 02:29:15;;;;;;;6.07;2.50;;;;;;;8.40;57.80;99962.06;6064475;23;20109;-81
2021/05/31 02:31:41;;;;;;;4.55;1.77;;;;;;;8.48;57.50;99968.66;6067861;23;20040;-81
2021/05/31 02:34:08;;;;;;;11.75;2.95;;;;;;;8.49;57.76;99970.38;6067189;23;20023;-80
2021/05/31 02:36:34;;;;;;;7.05;2.22;;;;;;;8.38;57.83;99969.44;6068691;23;20122;-81
2021/05/31 02:39:00;;;;;;;4.38;2.45;;;;;;;8.45;58.14;99970.63;6044764;23;20074;-80
2021/05/31 02:41:26;;;;;;;2.08;1.67;;;;;;;8.50;58.34;99966.69;6072254;23;20098;-81
2021/05/31 02:43:52;;;;;;;4.47;1.95;;;;;;;8.50;58.51;99972.09;6072003;23;20066;-81
2021/05/31 02:46:18;;;;;;;5.70;2.10;;;;;;;8.51;58.26;99974.63;6041435;23;20018;-81
2021/05/31 02:48:44;;;;;;;2.97;1.63;;;;;;;8.49;58.07;99973.06;6065251;23;20071;-80
2021/05/31 02:51:10;;;;;;;3.17;2.15;;;;;;;8.47;58.02;99973.19;6069645;23;20064;-80
2021/05/31 02:53:36;;;;;;;6.10;2.15;;;;;;;8.53;58.33;99972.69;6071381;23;20070;-82
2021/05/31 02:56:02;;;;;;;5.93;2.35;;;;;;;8.52;57.67;99970.09;6072049;23;20039;-80
2021/05/31 02:58:28;;;;;;;6.20;2.17;;;;;;;8.48;58.41;99974.88;6073305;23;20041;-80
2021/05/31 03:00:54;;;;;;;3.45;1.70;;;;;;;8.49;58.18;99970.38;6073404;23;20169;-82
2021/05/31 03:03:20;;;;;;;4.57;3.28;;;;;;;8.72;57.47;99977.34;6071280;23;20023;-80
2021/05/31 03:05:46;;;;;;;4.50;2.00;;;;;;;8.76;57.10;99977.94;6070985;23;20022;-80
2021/05/31 03:08:12;;;;;;;2.50;1.50;;;;;;;8.78;56.76;99973.28;6072097;23;20026;-82
2021/05/31 03:10:38;;;;;;;5.18;2.03;;;;;;;8.68;57.12;99974.06;6073228;23;20035;-81
2021/05/31 03:13:04;;;;;;;4.30;1.75;;;;;;;8.71;57.33;99978.34;6071594;23;20023;-80
2021/05/31 03:15:30;;;;;;;4.80;2.20;;;;;;;8.79;57.53;99978.53;6070886;23;20054;-80
2021/05/31 03:17:56;;;;;;;5.85;1.92;;;;;;;8.86;57.72;99979.72;6069573;23;20053;-79
2021/05/31 03:20:24;;;;;;;6.07;1.55;;;;;;;8.84;57.36;99981.66;6069816;23;20078;-79
2021/05/31 03:22:51;;;;;;;4.07;1.80;;;;;;;8.76;57.86;99989.56;6071383;23;20019;-80
2021/05/31 03:25:17;;;;;;;3.70;1.40;;;;;;;8.80;57.51;99982.94;6072558;23;20030;-80
2021/05/31 03:27:43;;;;;;;5.20;2.63;;;;;;;8.84;57.16;99986.22;6071646;23;20019;-80
2021/05/31 03:30:10;;;;;;;5.30;1.60;;;;;;;8.85;57.47;99977.16;6047237;23;20022;-83
2021/05/31 03:32:37;;;;;;;4.97;1.95;;;;;;;8.87;58.19;99992.19;6070444;23;20097;-80
2021/05/31 03:35:04;;;;;;;3.72;1.83;;;;;;;8.94;57.12;99993.38;6070452;23;20030;-84
2021/05/31 03:37:30;;;;;;;7.65;2.50;;;;;;;8.99;57.72;99989.44;6070296;23;20098;-80
2021/05/31 03:39:56;;;;;;;5.80;2.28;;;;;;;9.11;57.64;99988.38;6070887;23;20007;-80
2021/05/31 03:42:22;;;;;;;10.15;2.60;;;;;;;9.14;57.23;99993.47;6081095;23;20057;-80
2021/05/31 03:44:48;;;;;;;3.85;2.17;;;;;;;9.11;57.89;99988.38;6077530;23;20027;-83
2021/05/31 03:47:14;;;;;;;5.97;2.55;;;;;;;9.03;57.99;99982.78;6076257;23;20078;-80
2021/05/31 03:49:40;;;;;;;6.75;2.47;;;;;;;8.97;57.17;99988.72;6074458;23;20065;-80
2021/05/31 03:52:06;;;;;;;8.90;2.10;;;;;;;8.98;57.60;99976.94;6073574;23;20023;-80
2021/05/31 03:54:31;;;;;;;3.10;1.92;;;;;;;9.08;57.23;99983.25;6072695;23;20556;-82
2021/05/31 03:56:58;;;;;;;3.35;2.13;;;;;;;9.15;57.39;99984.44;6074058;23;20034;-80
2021/05/31 03:59:25;;;;;;;8.45;2.05;;;;;;;9.26;56.91;99984.34;6074740;23;20100;-80
2021/05/31 04:01:51;;;;;;;6.28;2.05;;;;;;;9.23;56.60;99975.66;6057466;23;20030;-81
2021/05/31 04:04:20;;;;;;;4.20;1.90;;;;;;;9.42;56.18;99975.75;6081690;23;20007;-80
2021/05/31 04:11:33;;;;;;;5.90;1.98;;;;;;;9.57;56.41;99978.91;6079443;23;20018;-82
2021/05/31 04:12:29;;;;;;;6.07;2.10;;;;;;;9.87;55.56;99976.19;6084097;23;20006;-81
2021/05/31 04:14:56;;;;;;;5.13;2.15;;;;;;;10.08;54.91;99984.16;6080598;23;20027;-83
2021/05/31 04:17:26;;;;;;;4.40;2.10;;;;;;;10.28;54.83;99985.09;6082428;23;20019;-81
2021/05/31 04:19:53;;;;;;;6.18;1.95;;;;;;;10.62;53.93;99987.34;6081771;23;20031;-81
2021/05/31 04:22:19;;;;;;;5.35;2.15;;;;;;;10.63;54.44;99991.75;6082060;23;20002;-81
2021/05/31 04:24:44;;;;;;;9.18;3.08;;;;;;;10.59;53.74;99984.94;6079571;23;20031;-81
2021/05/31 04:27:10;;;;;;;8.38;2.42;;;;;;;10.90;53.50;99995.59;6079282;23;20018;-82
2021/05/31 04:29:36;;;;;;;4.05;2.05;;;;;;;10.97;52.86;99985.88;6077323;23;20082;-81
2021/05/31 04:32:03;;;;;;;7.65;2.15;;;;;;;10.99;53.00;99989.28;6077627;23;20038;-80
2021/05/31 04:34:28;;;;;;;13.00;2.53;;;;;;;11.10;52.38;99986.41;6076206;23;20078;-83
2021/05/31 04:36:54;;;;;;;4.72;2.88;;;;;;;11.40;52.59;99989.88;6079818;23;20105;-80
2021/05/31 04:39:20;;;;;;;9.90;2.75;;;;;;;11.97;51.14;99990.66;6056790;23;20019;-82
2021/05/31 04:41:46;;;;;;;7.93;2.28;;;;;;;12.37;49.61;99994.81;6079845;23;20023;-81
2021/05/31 04:44:12;;;;;;;4.88;2.22;;;;;;;12.36;49.68;99990.38;6107976;23;20074;-80
2021/05/31 04:46:39;;;;;;;6.32;1.92;;;;;;;11.99;50.51;99991.31;6080240;23;20047;-81
2021/05/31 04:49:04;;;;;;;8.98;2.10;;;;;;;11.76;50.07;99994.41;6077016;23;20023;-81
2021/05/31 04:51:31;;;;;;;4.05;1.60;;;;;;;11.82;50.55;99982.16;6084279;23;20023;-81
2021/05/31 04:53:58;;;;;;;5.45;1.85;;;;;;;11.67;50.91;99984.50;6086114;23;20023;-81
2021/05/31 04:56:25;;;;;;;3.03;1.90;;;;;;;11.66;51.54;99988.19;6077584;23;20430;-82
2021/05/31 04:58:51;;;;;;;2.55;2.20;;;;;;;12.12;51.49;99985.56;6079410;23;20010;-80
2021/05/31 05:01:18;;;;;;;4.72;2.13;;;;;;;12.38;49.05;99985.66;6081843;23;20110;-81
2021/05/31 05:03:47;;;;;;;3.47;2.00;;;;;;;12.56;48.41;99986.50;6058448;23;20042;-82
2021/05/31 05:06:13;;;;;;;11.07;2.65;;;;;;;12.87;48.65;99983.34;6081069;23;20019;-81
2021/05/31 05:08:39;;;;;;;6.43;2.30;;;;;;;13.32;48.71;99993.22;6080957;23;20019;-82
2021/05/31 05:11:04;;;;;;;3.70;2.03;;;;;;;12.98;48.34;99980.38;6077393;23;20046;-85
2021/05/31 05:13:30;;;;;;;3.83;2.40;;;;;;;13.61;46.86;99993.72;6071521;23;20018;-85
2021/05/31 05:15:57;;;;;;;6.85;3.00;;;;;;;14.30;44.88;99999.06;6072118;23;20031;-85
2021/05/31 05:18:23;;;;;;;6.13;2.33;;;;;;;14.49;44.50;99993.31;6067458;23;20030;-83
2021/05/31 05:20:49;;;;;;;5.85;2.20;;;;;;;14.20;45.65;99978.28;6070448;23;20019;-82
2021/05/31 05:23:16;;;;;;;4.53;2.50;;;;;;;13.78;47.00;99988.34;6068678;23;20343;-83
2021/05/31 05:25:42;;;;;;;3.50;2.10;;;;;;;13.35;47.40;99987.47;6069092;23;20023;-83
2021/05/31 05:28:09;;;;;;;5.13;2.03;;;;;;;13.44;47.73;99981.91;6069738;23;20025;-84
2021/05/31 05:30:35;;;;;;;5.97;1.77;;;;;;;13.67;46.90;99987.59;6025070;23;20112;-83
2021/05/31 05:33:01;;;;;;;4.40;2.10;;;;;;;13.38;47.19;100000.69;6072981;23;20055;-82
2021/05/31 05:35:35;;;;;;;10.40;3.10;;;;;;;13.33;47.56;99997.63;6075185;23;20065;-81
2021/05/31 05:43:28;;;;;;;5.38;2.30;;;;;;;13.27;46.97;99996.38;6073356;23;20042;-84
2021/05/31 05:48:30;;;;;;;4.35;1.95;;;;;;;13.58;47.13;99999.47;6070262;23;20015;-84
2021/05/31 05:51:09;;;;;;;8.52;2.90;;;;;;;13.42;46.93;100005.69;6077902;23;20049;-84
2021/05/31 05:53:41;;;;;;;7.55;2.67;;;;;;;13.43;47.23;99998.38;6081340;23;20082;-84
2021/05/31 05:56:11;;;;;;;8.35;2.72;;;;;;;13.53;47.17;100004.53;6056679;23;20086;-85
2021/05/31 05:58:38;;;;;;;5.40;2.83;;;;;;;13.70;47.65;100009.03;6082732;23;20030;-85
2021/05/31 06:01:06;;;;;;;9.02;3.47;;;;;;;13.74;47.40;100002.25;6057899;23;20022;-86
2021/05/31 06:03:33;;;;;;;7.38;2.70;;;;;;;13.72;46.57;100012.44;6011539;23;20097;-85
2021/05/31 06:06:00;;;;;;;4.97;2.28;;;;;;;13.94;46.12;100007.44;6076876;23;20023;-84
2021/05/31 06:08:27;;;;;;;12.98;2.95;;;;;;;13.82;46.57;100000.56;6084825;23;20042;-86
2021/05/31 06:10:53;;;;;;;11.32;2.65;;;;;;;14.22;46.12;100008.03;6103051;23;20038;-86
2021/05/31 06:13:23;;;;;;;4.97;2.28;;;;;;;14.57;44.83;100006.94;6085051;23;20018;-86
2021/05/31 06:16:00;;;;;;;10.63;2.60;;;;;;;14.49;45.18;100015.06;6064407;23;20010;-87
2021/05/31 06:18:27;;;;;;;9.00;3.00;;;;;;;14.70;45.04;100003.75;6036260;23;20034;-86
2021/05/31 06:20:54;;;;;;;4.63;2.40;;;;;;;14.86;45.64;100006.44;6083788;23;20035;-86
2021/05/31 06:23:20;;;;;;;6.63;2.30;;;;;;;14.52;45.06;100006.59;6105434;23;20030;-83
2021/05/31 06:25:46;;;;;;;6.88;2.10;;;;;;;14.17;45.71;100011.25;6051064;23;20071;-86
2021/05/31 06:28:12;;;;;;;5.35;2.17;;;;;;;14.02;46.09;100006.63;6080971;23;20157;-82
2021/05/31 06:30:38;;;;;;;7.88;2.60;;;;;;;14.07;46.04;100007.81;6098943;23;20038;-83
2021/05/31 06:33:04;;;;;;;6.93;2.22;;;;;;;14.13;46.20;100007.16;6078842;23;20023;-83
2021/05/31 06:35:31;;;;;;;6.20;2.97;;;;;;;14.06;46.21;100002.56;6023385;23;20049;-85
2021/05/31 06:38:03;;;;;;;7.10;3.58;;;;;;;14.22;45.45;100002.59;6047507;23;20154;-85
2021/05/31 06:40:29;;;;;;;10.73;3.03;;;;;;;14.44;45.61;100001.09;6071967;23;20039;-83
2021/05/31 06:42:57;;;;;;;3.60;2.40;;;;;;;14.25;46.29;100002.25;6047636;23;20026;-82
2021/05/31 06:45:26;;;;;;;6.75;2.40;;;;;;;14.25;46.27;100002.25;6071721;23;20082;-84
2021/05/31 06:47:54;;;;;;;5.35;2.58;;;;;;;14.60;45.33;100006.59;6073745;23;20023;-83
2021/05/31 06:50:22;;;;;;;6.00;2.65;;;;;;;14.93;45.01;100006.63;6073960;23;20036;-83
2021/05/31 06:52:48;;;;;;;6.57;2.80;;;;;;;15.51;43.91;100005.53;6076163;23;20050;-85
2021/05/31 06:55:16;;;;;;;9.18;3.20;;;;;;;15.83;43.72;100009.19;6073958;23;20110;-84
2021/05/31 06:57:43;;;;;;;6.15;2.65;;;;;;;15.40;43.84;100008.63;6077022;23;20025;-84
2021/05/31 07:00:11;;;;;;;6.45;2.42;;;;;;;15.28;44.75;99999.09;6079589;23;20030;-83
2021/05/31 07:02:37;;;;;;;7.13;3.20;;;;;;;15.25;44.88;99993.97;6075852;23;20273;-85
2021/05/31 07:05:05;;;;;;;12.57;4.00;;;;;;;15.13;44.92;100007.94;6077746;23;20070;-83
2021/05/31 07:07:32;;;;;;;8.45;2.65;;;;;;;15.19;45.25;100007.28;6078825;23;20055;-84
2021/05/31 07:09:58;;;;;;;9.35;2.78;;;;;;;15.27;44.53;100000.13;6054989;23;20086;-85
2021/05/31 07:12:24;;;;;;;10.05;3.25;;;;;;;15.25;45.00;100011.19;6077212;23;20027;-83
2021/05/31 07:14:51;;;;;;;8.75;3.28;;;;;;;15.32;44.58;100005.88;6074608;23;20033;-84
2021/05/31 07:17:18;;;;;;;8.25;2.95;;;;;;;15.83;43.39;99998.28;6050435;23;20050;-83
2021/05/31 07:19:46;;;;;;;6.15;2.67;;;;;;;15.92;42.40;99997.22;6072195;23;20022;-82
2021/05/31 07:22:16;;;;;;;10.15;3.20;;;;;;;16.67;42.11;99990.28;6029125;23;20026;-84
2021/05/31 07:24:43;;;;;;;9.57;3.10;;;;;;;16.81;42.37;99997.72;6076126;23;20047;-85
2021/05/31 07:27:10;;;;;;;10.30;2.97;;;;;;;16.07;42.99;99992.72;6077404;23;20548;-84
2021/05/31 07:29:37;;;;;;;10.18;3.53;;;;;;;16.03;42.64;100001.44;6072074;23;20078;-84
2021/05/31 07:32:04;;;;;;;7.50;3.47;;;;;;;17.17;40.72;100002.53;6072470;23;20066;-85
2021/05/31 07:34:30;;;;;;;6.88;3.58;;;;;;;17.52;40.74;100003.72;6077251;23;20035;-83
2021/05/31 07:36:56;;;;;;;11.77;3.35;;;;;;;16.93;40.39;100009.91;6074802;23;20026;-85
2021/05/31 07:39:23;;;;;;;9.18;3.75;;;;;;;17.65;39.70;100011.25;6023718;23;20022;-84
2021/05/31 07:41:51;;;;;;;9.80;4.70;;;;;;;18.49;38.57;100014.47;6053870;23;20034;-87
2021/05/31 07:44:18;;;;;;;12.48;3.97;;;;;;;19.09;38.17;100009.63;6036900;23;20030;-87
2021/05/31 07:49:49;;;;;;;6.70;3.90;;;;;;;19.40;36.87;100001.81;6072996;23;20025;-86
2021/05/31 07:52:24;;;;;;;9.82;4.30;;;;;;;20.78;36.36;100008.22;6091679;23;20022;-88
2021/05/31 07:54:51;;;;;;;11.20;5.10;;;;;;;22.18;34.24;100006.19;6065458;23;20030;-86
2021/05/31 07:57:21;;;;;;;13.10;5.60;;;;;;;23.05;32.29;100006.53;6068526;23;20042;-89
2021/05/31 07:59:49;;;;;;;7.22;4.68;;;;;;;23.62;31.28;100012.84;6013722;23;20027;-86
2021/05/31 08:02:20;;;;;;;8.40;4.90;;;;;;;23.72;31.22;100002.13;5989361;23;20037;-88
2021/05/31 08:04:48;;;;;;;8.93;3.85;;;;;;;22.99;31.40;99999.16;6006842;23;20605;-86
2021/05/31 08:07:14;;;;;;;8.85;4.15;;;;;;;22.87;31.90;100005.34;6008143;23;20049;-86
2021/05/31 08:09:42;;;;;;;6.13;3.10;;;;;;;21.85;33.16;99998.84;6033480;23;20038;-87
2021/05/31 08:12:09;;;;;;;6.03;2.50;;;;;;;21.04;33.76;100003.78;6050794;23;20075;-89
2021/05/31 08:14:36;;;;;;;8.38;2.65;;;;;;;19.50;34.88;99996.84;6079384;23;20018;-88
2021/05/31 08:17:03;;;;;;;15.35;3.13;;;;;;;18.51;36.07;99999.53;6032590;23;20081;-86
2021/05/31 08:22:27;;;;;;;4.28;1.90;;;;;;;17.20;37.93;99989.34;6081762;23;20106;-86
2021/05/31 08:24:54;;;;;;;5.30;1.90;;;;;;;16.80;37.74;99991.41;6091291;23;20011;-84
2021/05/31 08:27:21;;;;;;;6.68;2.05;;;;;;;16.27;39.46;100000.44;6083953;23;20081;-84
2021/05/31 08:42:07;;;;;;;5.53;2.45;;;;;;;15.32;41.74;99989.53;5270198;22;20424;-86
2021/05/31 08:44:33;;;;;;;9.15;2.45;;;;;;;15.27;41.27;99987.34;5264168;22;20154;-88
2021/05/31 08:47:05;;;;;;;9.52;2.33;;;;;;;14.96;41.51;99989.94;5082977;28;20033;-86
2021/05/31 08:49:31;;;;;;;5.85;2.22;;;;;;;14.98;41.20;99993.34;5530939;22;20044;-88
2021/05/31 08:52:00;;;;;;;6.93;1.90;;;;;;;15.10;40.63;99991.97;5310385;23;20036;-87
2021/05/31 08:54:28;;;;;;;3.55;2.00;;;;;;;15.17;40.92;99992.13;5176627;23;20488;-83
2021/05/31 08:56:54;;;;;;;6.72;1.83;;;;;;;15.01;41.03;99992.16;5081676;28;20497;-82
2021/05/31 08:59:20;;;;;;;10.18;2.20;;;;;;;14.92;41.65;99988.59;5072299;28;20121;-83
2021/05/31 09:01:47;;;;;;;5.22;2.05;;;;;;;14.93;40.95;99990.28;5100267;28;20048;-82
2021/05/31 09:04:14;;;;;;;10.45;2.47;;;;;;;15.03;40.87;99981.94;5078398;28;21722;-82
2021/05/31 09:06:41;;;;;;;5.25;1.67;;;;;;;14.95;40.58;99982.78;5040665;28;20029;-82
2021/05/31 09:09:08;;;;;;;7.93;2.13;;;;;;;15.06;40.48;99985.16;5048142;28;20075;-85
2021/05/31 09:11:35;;;;;;;7.10;2.05;;;;;;;14.97;41.00;99979.91;5064718;28;20063;-83
2021/05/31 09:14:02;;;;;;;8.63;2.35;;;;;;;15.15;41.06;99977.84;5059733;28;20090;-83
2021/05/31 09:16:47;;;;;;;7.28;2.67;;;;;;;15.46;40.35;99986.09;5031616;28;20041;-82
2021/05/31 09:19:14;;;;;;;9.88;3.00;;;;;;;15.59;40.74;99980.97;5041802;28;20218;-79
2021/05/31 09:21:43;;;;;;;13.15;2.70;;;;;;;15.82;40.14;99977.50;5054085;28;22078;-82
2021/05/31 09:24:12;;;;;;;13.07;2.83;;;;;;;16.01;39.91;99979.78;5091224;28;20048;-82
2021/05/31 09:26:47;;;;;;;11.05;2.88;;;;;;;16.28;39.72;99985.78;5039347;28;20063;-82
2021/05/31 09:29:15;;;;;;;10.13;2.30;;;;;;;16.34;39.30;99985.03;5090531;28;20077;-82
2021/05/31 09:31:42;;;;;;;7.93;1.95;;;;;;;16.12;39.56;99976.69;5079371;28;20080;-86
2021/05/31 09:34:13;;;;;;;5.53;2.10;;;;;;;16.04;39.28;99973.13;5564401;22;20047;-85
2021/05/31 09:36:52;;;;;;;3.97;2.08;;;;;;;15.91;40.22;99973.72;5058818;28;20048;-83
2021/05/31 09:42:48;;;;;;;20.10;3.60;;;;;;;16.09;41.36;99981.66;5425145;23;20077;-84
2021/05/31 09:45:14;;;;;;;9.65;2.42;;;;;;;15.95;41.81;99977.78;4860838;29;20053;-83
2021/05/31 09:47:41;;;;;;;4.80;1.88;;;;;;;15.89;41.56;99982.06;4833766;29;20046;-84
2021/05/31 09:50:08;;;;;;;6.70;2.10;;;;;;;15.87;41.22;99977.84;4843578;29;20611;-85
2021/05/31 09:52:35;;;;;;;6.00;2.38;;;;;;;15.79;41.01;99975.13;4818549;29;20165;-84
2021/05/31 09:55:07;;;;;;;8.27;3.83;;;;;;;15.77;40.86;99975.31;4834216;29;20068;-82
2021/05/31 09:57:37;;;;;;;8.68;2.28;;;;;;;15.86;40.48;99971.50;4829217;29;20056;-83
2021/05/31 10:00:17;;;;;;;6.72;2.30;;;;;;;15.97;40.39;99978.44;4836988;29;20042;-83
2021/05/31 10:08:40;;;;;;;7.43;3.63;;;;;;;16.80;39.26;99974.19;4830379;29;20050;-84
2021/05/31 10:10:51;;;;;;;10.65;2.67;;;;;;;17.30;38.33;99975.41;4801390;29;20042;-84
2021/05/31 10:13:36;;;;;;;5.70;2.85;;;;;;;17.57;37.83;99976.66;4829926;29;20057;-84
2021/05/31 10:16:07;;;;;;;6.05;2.63;;;;;;;18.09;36.37;99970.19;4820305;29;20114;-84
2021/05/31 10:18:42;;;;;;;5.57;2.70;;;;;;;18.35;36.54;99968.81;4821703;29;20057;-85
2021/05/31 10:21:35;;;;;;;7.15;2.78;;;;;;;18.25;36.87;99969.16;4817801;29;20050;-84
2021/05/31 10:24:02;;;;;;;4.30;2.65;;;;;;;18.50;36.24;99967.72;4820535;29;20058;-83
2021/05/31 10:26:36;;;;;;;6.78;3.28;;;;;;;19.56;35.64;99977.88;4832554;29;20038;-83
2021/05/31 10:29:04;;;;;;;3.67;3.42;;;;;;;20.51;33.97;99976.22;4832913;29;20057;-84
2021/05/31 10:31:41;;;;;;;6.60;4.05;;;;;;;21.34;31.74;99969.31;4816148;29;20042;-84
2021/05/31 10:34:20;;;;;;;4.57;3.60;;;;;;;22.03;31.38;99964.28;4836178;29;20181;-82
2021/05/31 10:36:53;;;;;;;5.97;3.53;;;;;;;22.53;31.27;99961.72;4807032;29;20049;-85
2021/05/31 10:39:28;;;;;;;7.50;2.58;;;;;;;22.46;31.87;99953.50;4854058;29;20505;-85
2021/05/31 10:42:08;;;;;;;4.57;2.00;;;;;;;20.56;32.75;99957.25;4800043;29;20058;-82
2021/05/31 10:44:34;;;;;;;5.53;2.15;;;;;;;20.35;33.63;99961.81;4838788;29;20067;-84
2021/05/31 10:47:13;;;;;;;4.93;2.35;;;;;;;19.83;33.82;99954.22;4832653;29;20125;-83
2021/05/31 10:49:40;;;;;;;6.68;2.13;;;;;;;19.39;34.41;99958.19;4798592;29;20070;-83
2021/05/31 10:52:17;;;;;;;3.20;2.10;;;;;;;19.32;35.25;99958.13;4832934;29;20053;-83
2021/05/31 10:54:43;;;;;;;6.75;2.13;;;;;;;19.09;35.19;99966.59;4833518;29;20042;-82
2021/05/31 10:57:10;;;;;;;9.95;2.88;;;;;;;18.40;36.00;99959.00;4823416;29;20111;-83
2021/05/31 10:59:50;;;;;;;2.72;1.95;;;;;;;17.60;36.75;99949.78;4823569;29;20074;-82
2021/05/31 11:02:22;;;;;;;4.85;2.00;;;;;;;17.60;36.92;99966.19;4809118;29;20107;-83
2021/05/31 11:04:49;;;;;;;7.90;2.22;;;;;;;17.39;37.74;99962.50;4823499;29;20046;-84
2021/05/31 11:07:25;;;;;;;2.88;1.63;;;;;;;17.19;37.35;99967.69;4827577;29;20884;-84
2021/05/31 11:09:53;;;;;;;6.25;2.30;;;;;;;17.08;38.33;99967.09;4813029;29;20046;-86
2021/05/31 11:12:30;;;;;;;3.92;2.28;;;;;;;17.01;37.92;99971.59;4816985;29;20054;-84
2021/05/31 11:15:13;;;;;;;9.70;2.25;;;;;;;16.86;38.24;99970.72;4812069;29;20476;-84
2021/05/31 11:17:53;;;;;;;3.85;1.88;;;;;;;16.87;37.97;99969.69;4816243;29;20057;-82
2021/05/31 11:20:21;;;;;;;6.72;2.10;;;;;;;16.70;38.23;99973.53;4831061;29;20118;-82
2021/05/31 11:22:59;;;;;;;10.27;2.28;;;;;;;16.39;38.25;99971.72;4823385;29;20043;-85
2021/05/31 11:25:26;;;;;;;12.75;2.10;;;;;;;16.26;38.87;99971.47;4850323;29;20052;-84
2021/05/31 11:27:56;;;;;;;2.53;1.85;;;;;;;16.40;38.57;99967.97;4821940;29;20087;-84
2021/05/31 11:30:25;;;;;;;3.03;1.90;;;;;;;16.79;37.77;99961.56;4836271;29;20052;-82
2021/05/31 11:32:59;;;;;;;3.35;2.08;;;;;;;16.63;37.18;99966.06;4817852;29;20051;-84
2021/05/31 11:35:27;;;;;;;4.68;2.15;;;;;;;16.75;38.23;99954.78;4833890;29;20038;-84
2021/05/31 11:37:54;;;;;;;3.00;2.05;;;;;;;17.19;36.33;99951.28;4828714;29;20081;-84
2021/05/31 11:40:33;;;;;;;13.48;3.65;;;;;;;17.71;36.12;99955.81;4831104;29;20070;-82
2021/05/31 11:43:02;;;;;;;3.40;2.47;;;;;;;18.71;33.90;99950.47;4798689;29;20054;-85
2021/05/31 11:45:37;;;;;;;7.28;2.08;;;;;;;18.75;35.19;99953.66;4813553;29;20046;-84
2021/05/31 11:48:09;;;;;;;2.78;2.08;;;;;;;18.74;34.47;99946.50;4833531;29;20050;-83
2021/05/31 11:50:40;;;;;;;6.32;2.00;;;;;;;18.33;34.44;99960.81;4808784;29;20720;-82
2021/05/31 11:53:11;;;;;;;8.60;2.67;;;;;;;17.89;35.83;99942.63;4807422;29;20157;-83
2021/05/31 11:55:41;;;;;;;9.57;2.65;;;;;;;18.33;35.62;99949.84;4799169;29;20034;-83
2021/05/31 11:58:08;;;;;;;6.05;2.53;;;;;;;18.43;36.02;99944.91;4813610;29;20141;-83
2021/05/31 12:00:41;;;;;;;6.88;2.40;;;;;;;18.20;35.42;99952.44;4812824;29;20144;-83
2021/05/31 12:03:16;;;;;;;6.53;2.67;;;;;;;18.30;35.65;99958.44;4848303;29;20137;-83
2021/05/31 12:05:42;;;;;;;4.85;2.00;;;;;;;17.53;35.99;99946.09;4822442;29;20042;-83
2021/05/31 12:08:14;;;;;;;4.20;2.00;;;;;;;17.03;37.15;99946.81;4826468;29;20584;-83
2021/05/31 12:10:42;;;;;;;7.40;3.05;;;;;;;17.57;36.90;99943.84;4809584;29;20095;-83
2021/05/31 12:13:09;;;;;;;7.38;2.22;;;;;;;17.03;37.87;99946.81;4823072;29;20050;-83
2021/05/31 12:15:38;;;;;;;5.47;2.50;;;;;;;16.62;39.11;99955.34;4806222;29;20830;-85
2021/05/31 12:18:20;;;;;;;4.07;2.05;;;;;;;16.68;39.03;99948.31;4783877;29;20057;-83
2021/05/31 12:20:46;;;;;;;3.10;2.08;;;;;;;16.44;39.96;99944.72;4810167;29;20660;-84